sensor_id;sensor_type;location;lat;lon;timestamp;temperature;humidity
12708;DHT22;6418;50.824;4.718;2023-12-28T00:01:49;10.00;99.90
12708;DHT22;6418;50.824;4.718;2023-12-28T00:04:17;10.00;99.90
12708;DHT22;6418;50.824;4.718;2023-12-28T00:06:45;10.00;99.90
12708;DHT22;6418;50.824;4.718;2023-12-28T00:09:13;10.00;99.90
12708;DHT22;6418;50.824;4.718;2023-12-28T00:11:40;10.00;99.90
12708;DHT22;6418;50.824;4.718;2023-12-28T00:14:06;10.00;99.90
12708;DHT22;6418;50.824;4.718;2023-12-28T00:16:33;10.00;99.90
12708;DHT22;6418;50.824;4.718;2023-12-28T00:19:02;10.00;99.90
12708;DHT22;6418;50.824;4.718;2023-12-28T00:21:30;10.00;99.90
12708;DHT22;6418;50.824;4.718;2023-12-28T00:23:58;10.00;99.90
12708;DHT22;6418;50.824;4.718;2023-12-28T00:26:25;9.90;99.90
12708;DHT22;6418;50.824;4.718;2023-12-28T00:28:52;10.00;99.90
12708;DHT22;6418;50.824;4.718;2023-12-28T00:31:19;9.90;99.90
12708;DHT22;6418;50.824;4.718;2023-12-28T00:33:46;9.90;99.90
12708;DHT22;6418;50.824;4.718;2023-12-28T00:36:14;9.90;99.90
12708;DHT22;6418;50.824;4.718;2023-12-28T00:38:42;9.90;99.90
12708;DHT22;6418;50.824;4.718;2023-12-28T00:41:10;9.90;99.90
12708;DHT22;6418;50.824;4.718;2023-12-28T00:43:37;9.90;99.90
12708;DHT22;6418;50.824;4.718;2023-12-28T00:46:04;9.90;99.90
12708;DHT22;6418;50.824;4.718;2023-12-28T00:48:31;9.80;99.90
12708;DHT22;6418;50.824;4.718;2023-12-28T00:50:58;9.80;99.90
12708;DHT22;6418;50.824;4.718;2023-12-28T00:53:26;9.80;99.90
12708;DHT22;6418;50.824;4.718;2023-12-28T00:55:53;9.80;99.90
12708;DHT22;6418;50.824;4.718;2023-12-28T00:58:21;9.80;99.90
12708;DHT22;6418;50.824;4.718;2023-12-28T01:00:48;9.80;99.90
12708;DHT22;6418;50.824;4.718;2023-12-28T01:03:18;9.80;99.90
12708;DHT22;6418;50.824;4.718;2023-12-28T01:05:45;9.80;99.90
12708;DHT22;6418;50.824;4.718;2023-12-28T01:08:16;9.80;99.90
12708;DHT22;6418;50.824;4.718;2023-12-28T01:10:43;9.80;99.90
12708;DHT22;6418;50.824;4.718;2023-12-28T01:13:10;9.80;99.90
12708;DHT22;6418;50.824;4.718;2023-12-28T01:15:38;9.80;99.90
12708;DHT22;6418;50.824;4.718;2023-12-28T01:18:05;9.80;99.90
12708;DHT22;6418;50.824;4.718;2023-12-28T01:20:32;9.80;99.90
12708;DHT22;6418;50.824;4.718;2023-12-28T01:23:00;9.80;99.90
12708;DHT22;6418;50.824;4.718;2023-12-28T01:25:27;9.80;99.90
12708;DHT22;6418;50.824;4.718;2023-12-28T01:27:54;9.80;99.90
12708;DHT22;6418;50.824;4.718;2023-12-28T01:30:21;9.70;99.90
12708;DHT22;6418;50.824;4.718;2023-12-28T01:32:50;9.70;99.90
12708;DHT22;6418;50.824;4.718;2023-12-28T01:35:17;9.70;99.90
12708;DHT22;6418;50.824;4.718;2023-12-28T01:37:44;9.70;99.90
12708;DHT22;6418;50.824;4.718;2023-12-28T01:40:11;9.70;99.90
12708;DHT22;6418;50.824;4.718;2023-12-28T01:42:38;9.70;99.90
12708;DHT22;6418;50.824;4.718;2023-12-28T01:45:06;9.70;99.90
12708;DHT22;6418;50.824;4.718;2023-12-28T01:47:34;9.60;99.90
12708;DHT22;6418;50.824;4.718;2023-12-28T01:50:03;9.60;99.90
12708;DHT22;6418;50.824;4.718;2023-12-28T01:52:32;9.60;99.90
12708;DHT22;6418;50.824;4.718;2023-12-28T01:54:59;9.60;99.90
12708;DHT22;6418;50.824;4.718;2023-12-28T01:57:28;9.60;99.90
12708;DHT22;6418;50.824;4.718;2023-12-28T01:59:55;9.60;99.90
12708;DHT22;6418;50.824;4.718;2023-12-28T02:02:24;9.60;99.90
12708;DHT22;6418;50.824;4.718;2023-12-28T02:04:51;9.50;99.90
12708;DHT22;6418;50.824;4.718;2023-12-28T02:07:20;9.50;99.90
12708;DHT22;6418;50.824;4.718;2023-12-28T02:09:47;9.50;99.90
12708;DHT22;6418;50.824;4.718;2023-12-28T02:12:14;9.50;99.90
12708;DHT22;6418;50.824;4.718;2023-12-28T02:14:41;9.50;99.90
12708;DHT22;6418;50.824;4.718;2023-12-28T02:17:12;9.50;99.90
12708;DHT22;6418;50.824;4.718;2023-12-28T02:19:47;9.50;99.90
12708;DHT22;6418;50.824;4.718;2023-12-28T02:22:16;9.50;99.90
12708;DHT22;6418;50.824;4.718;2023-12-28T02:25:03;9.50;99.90
12708;DHT22;6418;50.824;4.718;2023-12-28T02:27:31;9.50;99.90
12708;DHT22;6418;50.824;4.718;2023-12-28T02:29:58;9.50;99.90
12708;DHT22;6418;50.824;4.718;2023-12-28T02:32:35;9.40;99.90
12708;DHT22;6418;50.824;4.718;2023-12-28T02:35:12;9.40;99.90
12708;DHT22;6418;50.824;4.718;2023-12-28T02:37:42;9.40;99.90
12708;DHT22;6418;50.824;4.718;2023-12-28T02:40:14;9.40;99.90
12708;DHT22;6418;50.824;4.718;2023-12-28T02:42:41;9.40;99.90
12708;DHT22;6418;50.824;4.718;2023-12-28T02:45:09;9.50;99.90
12708;DHT22;6418;50.824;4.718;2023-12-28T02:47:36;9.40;99.90
12708;DHT22;6418;50.824;4.718;2023-12-28T02:50:04;9.40;99.90
12708;DHT22;6418;50.824;4.718;2023-12-28T02:52:31;9.40;99.90
12708;DHT22;6418;50.824;4.718;2023-12-28T02:54:58;9.40;99.90
12708;DHT22;6418;50.824;4.718;2023-12-28T02:57:26;9.50;99.90
12708;DHT22;6418;50.824;4.718;2023-12-28T02:59:53;9.40;99.90
12708;DHT22;6418;50.824;4.718;2023-12-28T03:02:22;9.50;99.90
12708;DHT22;6418;50.824;4.718;2023-12-28T03:04:49;9.50;99.90
12708;DHT22;6418;50.824;4.718;2023-12-28T03:07:16;9.50;99.90
12708;DHT22;6418;50.824;4.718;2023-12-28T03:09:43;9.50;99.90
12708;DHT22;6418;50.824;4.718;2023-12-28T03:12:10;9.50;99.90
12708;DHT22;6418;50.824;4.718;2023-12-28T03:14:38;9.50;99.90
12708;DHT22;6418;50.824;4.718;2023-12-28T03:17:05;9.50;99.90
12708;DHT22;6418;50.824;4.718;2023-12-28T03:19:32;9.50;99.90
12708;DHT22;6418;50.824;4.718;2023-12-28T03:21:59;9.50;99.90
12708;DHT22;6418;50.824;4.718;2023-12-28T03:24:26;9.50;99.90
12708;DHT22;6418;50.824;4.718;2023-12-28T03:26:53;9.50;99.90
12708;DHT22;6418;50.824;4.718;2023-12-28T03:29:20;9.50;99.90
12708;DHT22;6418;50.824;4.718;2023-12-28T03:31:48;9.50;99.90
12708;DHT22;6418;50.824;4.718;2023-12-28T03:34:16;9.50;99.90
12708;DHT22;6418;50.824;4.718;2023-12-28T03:36:43;9.60;99.90
12708;DHT22;6418;50.824;4.718;2023-12-28T03:39:10;9.60;99.90
12708;DHT22;6418;50.824;4.718;2023-12-28T03:41:37;9.60;99.90
12708;DHT22;6418;50.824;4.718;2023-12-28T03:44:04;9.60;99.90
12708;DHT22;6418;50.824;4.718;2023-12-28T03:46:31;9.60;99.90
12708;DHT22;6418;50.824;4.718;2023-12-28T03:48:59;9.60;99.90
12708;DHT22;6418;50.824;4.718;2023-12-28T03:51:26;9.60;99.90
12708;DHT22;6418;50.824;4.718;2023-12-28T03:53:53;9.60;99.90
12708;DHT22;6418;50.824;4.718;2023-12-28T03:56:24;9.60;99.90
12708;DHT22;6418;50.824;4.718;2023-12-28T03:58:52;9.60;99.90
12708;DHT22;6418;50.824;4.718;2023-12-28T04:01:20;9.60;99.90
12708;DHT22;6418;50.824;4.718;2023-12-28T04:03:47;9.60;99.90
12708;DHT22;6418;50.824;4.718;2023-12-28T04:06:16;9.60;99.90
12708;DHT22;6418;50.824;4.718;2023-12-28T04:08:43;9.60;99.90
12708;DHT22;6418;50.824;4.718;2023-12-28T04:11:10;9.60;99.90
12708;DHT22;6418;50.824;4.718;2023-12-28T04:13:37;9.60;99.90
12708;DHT22;6418;50.824;4.718;2023-12-28T04:16:05;9.70;99.90
12708;DHT22;6418;50.824;4.718;2023-12-28T04:18:32;9.70;99.90
12708;DHT22;6418;50.824;4.718;2023-12-28T04:20:59;9.70;99.90
12708;DHT22;6418;50.824;4.718;2023-12-28T04:23:27;9.60;99.90
12708;DHT22;6418;50.824;4.718;2023-12-28T04:25:54;9.70;99.90
12708;DHT22;6418;50.824;4.718;2023-12-28T04:28:21;9.70;99.90
12708;DHT22;6418;50.824;4.718;2023-12-28T04:30:48;9.70;99.90
12708;DHT22;6418;50.824;4.718;2023-12-28T04:33:17;9.70;99.90
12708;DHT22;6418;50.824;4.718;2023-12-28T04:35:45;9.70;99.90
12708;DHT22;6418;50.824;4.718;2023-12-28T04:38:12;9.70;99.90
12708;DHT22;6418;50.824;4.718;2023-12-28T04:40:42;9.80;99.90
12708;DHT22;6418;50.824;4.718;2023-12-28T04:43:09;9.80;99.90
12708;DHT22;6418;50.824;4.718;2023-12-28T04:45:35;9.80;99.90
12708;DHT22;6418;50.824;4.718;2023-12-28T04:48:04;9.70;99.90
12708;DHT22;6418;50.824;4.718;2023-12-28T04:50:31;9.80;99.90
12708;DHT22;6418;50.824;4.718;2023-12-28T04:52:58;9.70;99.90
12708;DHT22;6418;50.824;4.718;2023-12-28T04:55:25;9.80;99.90
12708;DHT22;6418;50.824;4.718;2023-12-28T04:57:53;9.80;99.90
12708;DHT22;6418;50.824;4.718;2023-12-28T05:00:20;9.80;99.90
12708;DHT22;6418;50.824;4.718;2023-12-28T05:02:47;9.80;99.90
12708;DHT22;6418;50.824;4.718;2023-12-28T05:05:14;9.80;99.90
12708;DHT22;6418;50.824;4.718;2023-12-28T05:07:41;9.80;99.90
12708;DHT22;6418;50.824;4.718;2023-12-28T05:10:08;9.70;99.90
12708;DHT22;6418;50.824;4.718;2023-12-28T05:12:35;9.70;99.90
12708;DHT22;6418;50.824;4.718;2023-12-28T05:15:05;9.70;99.90
12708;DHT22;6418;50.824;4.718;2023-12-28T05:17:32;9.70;99.90
12708;DHT22;6418;50.824;4.718;2023-12-28T05:19:59;9.70;99.90
12708;DHT22;6418;50.824;4.718;2023-12-28T05:22:26;9.70;99.90
12708;DHT22;6418;50.824;4.718;2023-12-28T05:24:53;9.60;99.90
12708;DHT22;6418;50.824;4.718;2023-12-28T05:27:20;9.60;99.90
12708;DHT22;6418;50.824;4.718;2023-12-28T05:29:47;9.60;99.90
12708;DHT22;6418;50.824;4.718;2023-12-28T05:32:15;9.60;99.90
12708;DHT22;6418;50.824;4.718;2023-12-28T05:34:42;9.50;99.90
12708;DHT22;6418;50.824;4.718;2023-12-28T05:37:10;9.50;99.90
12708;DHT22;6418;50.824;4.718;2023-12-28T05:39:36;9.50;99.90
12708;DHT22;6418;50.824;4.718;2023-12-28T05:42:04;9.50;99.90
12708;DHT22;6418;50.824;4.718;2023-12-28T05:44:31;9.50;99.90
12708;DHT22;6418;50.824;4.718;2023-12-28T05:46:58;9.50;99.90
12708;DHT22;6418;50.824;4.718;2023-12-28T05:49:26;9.50;99.90
12708;DHT22;6418;50.824;4.718;2023-12-28T05:51:56;9.50;99.90
12708;DHT22;6418;50.824;4.718;2023-12-28T05:54:22;9.50;99.90
12708;DHT22;6418;50.824;4.718;2023-12-28T05:56:49;9.50;99.90
12708;DHT22;6418;50.824;4.718;2023-12-28T05:59:16;9.50;99.90
12708;DHT22;6418;50.824;4.718;2023-12-28T06:01:43;9.50;99.90
12708;DHT22;6418;50.824;4.718;2023-12-28T06:04:10;9.50;99.90
12708;DHT22;6418;50.824;4.718;2023-12-28T06:06:39;9.60;99.90
12708;DHT22;6418;50.824;4.718;2023-12-28T06:09:06;9.60;99.90
12708;DHT22;6418;50.824;4.718;2023-12-28T06:11:33;9.60;99.90
12708;DHT22;6418;50.824;4.718;2023-12-28T06:14:00;9.60;99.90
12708;DHT22;6418;50.824;4.718;2023-12-28T06:16:28;9.60;99.90
12708;DHT22;6418;50.824;4.718;2023-12-28T06:18:58;9.60;99.90
12708;DHT22;6418;50.824;4.718;2023-12-28T06:21:25;9.70;99.90
12708;DHT22;6418;50.824;4.718;2023-12-28T06:23:54;9.60;99.90
12708;DHT22;6418;50.824;4.718;2023-12-28T06:26:20;9.60;99.90
12708;DHT22;6418;50.824;4.718;2023-12-28T06:28:47;9.60;99.90
12708;DHT22;6418;50.824;4.718;2023-12-28T06:31:14;9.60;99.90
12708;DHT22;6418;50.824;4.718;2023-12-28T06:33:41;9.60;99.90
12708;DHT22;6418;50.824;4.718;2023-12-28T06:36:10;9.60;99.90
12708;DHT22;6418;50.824;4.718;2023-12-28T06:38:37;9.60;99.90
12708;DHT22;6418;50.824;4.718;2023-12-28T06:41:11;9.60;99.90
12708;DHT22;6418;50.824;4.718;2023-12-28T06:43:38;9.60;99.90
12708;DHT22;6418;50.824;4.718;2023-12-28T06:46:06;9.60;99.90
12708;DHT22;6418;50.824;4.718;2023-12-28T06:48:33;9.60;99.90
12708;DHT22;6418;50.824;4.718;2023-12-28T06:51:00;9.60;99.90
12708;DHT22;6418;50.824;4.718;2023-12-28T06:53:27;9.50;99.90
12708;DHT22;6418;50.824;4.718;2023-12-28T06:55:54;9.50;99.90
12708;DHT22;6418;50.824;4.718;2023-12-28T06:58:23;9.50;99.90
12708;DHT22;6418;50.824;4.718;2023-12-28T07:00:50;9.50;99.90
12708;DHT22;6418;50.824;4.718;2023-12-28T07:03:17;9.40;99.90
12708;DHT22;6418;50.824;4.718;2023-12-28T07:05:44;9.50;99.90
12708;DHT22;6418;50.824;4.718;2023-12-28T07:08:11;9.50;99.90
12708;DHT22;6418;50.824;4.718;2023-12-28T07:10:38;9.40;99.90
12708;DHT22;6418;50.824;4.718;2023-12-28T07:13:05;9.40;99.90
12708;DHT22;6418;50.824;4.718;2023-12-28T07:15:33;9.40;99.90
12708;DHT22;6418;50.824;4.718;2023-12-28T07:18:00;9.40;99.90
12708;DHT22;6418;50.824;4.718;2023-12-28T07:20:27;9.40;99.90
12708;DHT22;6418;50.824;4.718;2023-12-28T07:22:54;9.30;99.90
12708;DHT22;6418;50.824;4.718;2023-12-28T07:25:21;9.30;99.90
12708;DHT22;6418;50.824;4.718;2023-12-28T07:27:48;9.30;99.90
12708;DHT22;6418;50.824;4.718;2023-12-28T07:30:15;9.30;99.90
12708;DHT22;6418;50.824;4.718;2023-12-28T07:32:44;9.20;99.90
12708;DHT22;6418;50.824;4.718;2023-12-28T07:35:11;9.20;99.90
12708;DHT22;6418;50.824;4.718;2023-12-28T07:37:38;9.20;99.90
12708;DHT22;6418;50.824;4.718;2023-12-28T07:40:07;9.20;99.90
12708;DHT22;6418;50.824;4.718;2023-12-28T07:42:34;9.10;99.90
12708;DHT22;6418;50.824;4.718;2023-12-28T07:45:01;9.10;99.90
12708;DHT22;6418;50.824;4.718;2023-12-28T07:47:29;9.10;99.90
12708;DHT22;6418;50.824;4.718;2023-12-28T07:49:58;9.10;99.90
12708;DHT22;6418;50.824;4.718;2023-12-28T07:52:26;9.00;99.90
12708;DHT22;6418;50.824;4.718;2023-12-28T07:54:53;9.00;99.90
12708;DHT22;6418;50.824;4.718;2023-12-28T07:57:20;9.00;99.90
12708;DHT22;6418;50.824;4.718;2023-12-28T07:59:47;9.00;99.90
12708;DHT22;6418;50.824;4.718;2023-12-28T08:02:14;9.00;99.90
12708;DHT22;6418;50.824;4.718;2023-12-28T08:04:41;9.00;99.90
12708;DHT22;6418;50.824;4.718;2023-12-28T08:07:10;9.00;99.90
12708;DHT22;6418;50.824;4.718;2023-12-28T08:09:36;9.00;99.90
12708;DHT22;6418;50.824;4.718;2023-12-28T08:12:04;9.00;99.90
12708;DHT22;6418;50.824;4.718;2023-12-28T08:14:32;9.00;99.90
12708;DHT22;6418;50.824;4.718;2023-12-28T08:16:58;9.00;99.90
12708;DHT22;6418;50.824;4.718;2023-12-28T08:19:25;9.00;99.90
12708;DHT22;6418;50.824;4.718;2023-12-28T08:21:52;9.00;99.90
12708;DHT22;6418;50.824;4.718;2023-12-28T08:24:21;9.00;99.90
12708;DHT22;6418;50.824;4.718;2023-12-28T08:26:48;9.00;99.90
12708;DHT22;6418;50.824;4.718;2023-12-28T08:29:15;9.00;99.90
12708;DHT22;6418;50.824;4.718;2023-12-28T08:31:43;9.00;99.90
12708;DHT22;6418;50.824;4.718;2023-12-28T08:34:10;9.00;99.90
12708;DHT22;6418;50.824;4.718;2023-12-28T08:36:37;9.10;99.90
12708;DHT22;6418;50.824;4.718;2023-12-28T08:39:04;9.10;99.90
12708;DHT22;6418;50.824;4.718;2023-12-28T08:41:33;9.10;99.90
12708;DHT22;6418;50.824;4.718;2023-12-28T08:44:00;9.20;99.90
12708;DHT22;6418;50.824;4.718;2023-12-28T08:46:27;9.20;99.90
12708;DHT22;6418;50.824;4.718;2023-12-28T08:48:54;9.30;99.90
12708;DHT22;6418;50.824;4.718;2023-12-28T08:51:21;9.30;99.90
12708;DHT22;6418;50.824;4.718;2023-12-28T08:53:48;9.30;99.90
12708;DHT22;6418;50.824;4.718;2023-12-28T08:56:20;9.40;99.90
12708;DHT22;6418;50.824;4.718;2023-12-28T08:58:48;9.40;99.90
12708;DHT22;6418;50.824;4.718;2023-12-28T09:01:16;9.40;99.90
12708;DHT22;6418;50.824;4.718;2023-12-28T09:03:44;9.40;99.90
12708;DHT22;6418;50.824;4.718;2023-12-28T09:06:11;9.50;99.90
12708;DHT22;6418;50.824;4.718;2023-12-28T09:08:41;9.50;99.90
12708;DHT22;6418;50.824;4.718;2023-12-28T09:11:09;9.60;99.90
12708;DHT22;6418;50.824;4.718;2023-12-28T09:13:36;9.60;99.90
12708;DHT22;6418;50.824;4.718;2023-12-28T09:16:05;9.60;99.90
12708;DHT22;6418;50.824;4.718;2023-12-28T09:18:32;9.70;99.90
12708;DHT22;6418;50.824;4.718;2023-12-28T09:20:59;9.70;99.90
12708;DHT22;6418;50.824;4.718;2023-12-28T09:23:26;9.70;99.90
12708;DHT22;6418;50.824;4.718;2023-12-28T09:25:53;9.80;99.90
12708;DHT22;6418;50.824;4.718;2023-12-28T09:28:20;9.80;99.90
12708;DHT22;6418;50.824;4.718;2023-12-28T09:30:47;9.80;99.90
12708;DHT22;6418;50.824;4.718;2023-12-28T09:33:16;9.80;99.90
12708;DHT22;6418;50.824;4.718;2023-12-28T09:35:43;9.80;99.90
12708;DHT22;6418;50.824;4.718;2023-12-28T09:38:10;9.80;99.90
12708;DHT22;6418;50.824;4.718;2023-12-28T09:40:37;9.90;99.90
12708;DHT22;6418;50.824;4.718;2023-12-28T09:43:13;9.90;99.90
12708;DHT22;6418;50.824;4.718;2023-12-28T09:45:42;9.90;99.90
12708;DHT22;6418;50.824;4.718;2023-12-28T09:48:10;9.90;99.90
12708;DHT22;6418;50.824;4.718;2023-12-28T09:50:39;9.90;99.90
12708;DHT22;6418;50.824;4.718;2023-12-28T09:53:06;9.90;99.90
12708;DHT22;6418;50.824;4.718;2023-12-28T09:55:33;9.90;99.90
12708;DHT22;6418;50.824;4.718;2023-12-28T09:58:01;10.00;99.90
12708;DHT22;6418;50.824;4.718;2023-12-28T10:00:31;10.00;99.90
12708;DHT22;6418;50.824;4.718;2023-12-28T10:02:58;10.00;99.90
12708;DHT22;6418;50.824;4.718;2023-12-28T10:05:25;10.00;99.90
12708;DHT22;6418;50.824;4.718;2023-12-28T10:07:55;10.00;99.90
12708;DHT22;6418;50.824;4.718;2023-12-28T10:10:22;10.00;99.90
12708;DHT22;6418;50.824;4.718;2023-12-28T10:12:49;10.10;99.90
12708;DHT22;6418;50.824;4.718;2023-12-28T10:15:17;10.10;99.90
12708;DHT22;6418;50.824;4.718;2023-12-28T10:17:45;10.10;99.90
12708;DHT22;6418;50.824;4.718;2023-12-28T10:20:13;10.10;99.90
12708;DHT22;6418;50.824;4.718;2023-12-28T10:22:40;10.10;99.90
12708;DHT22;6418;50.824;4.718;2023-12-28T10:25:10;10.10;99.90
12708;DHT22;6418;50.824;4.718;2023-12-28T10:27:38;10.20;99.90
12708;DHT22;6418;50.824;4.718;2023-12-28T10:30:08;10.20;99.90
12708;DHT22;6418;50.824;4.718;2023-12-28T10:32:39;10.30;99.90
12708;DHT22;6418;50.824;4.718;2023-12-28T10:35:07;10.30;99.90
12708;DHT22;6418;50.824;4.718;2023-12-28T10:37:35;10.30;99.90
12708;DHT22;6418;50.824;4.718;2023-12-28T10:40:05;10.30;99.90
12708;DHT22;6418;50.824;4.718;2023-12-28T10:42:41;10.40;99.90
12708;DHT22;6418;50.824;4.718;2023-12-28T10:45:10;10.40;99.90
12708;DHT22;6418;50.824;4.718;2023-12-28T10:47:47;10.40;99.90
12708;DHT22;6418;50.824;4.718;2023-12-28T10:50:18;10.50;99.90
12708;DHT22;6418;50.824;4.718;2023-12-28T10:52:48;10.50;99.90
12708;DHT22;6418;50.824;4.718;2023-12-28T10:55:25;10.60;99.90
12708;DHT22;6418;50.824;4.718;2023-12-28T10:58:05;10.60;99.90
12708;DHT22;6418;50.824;4.718;2023-12-28T11:00:37;10.70;99.90
12708;DHT22;6418;50.824;4.718;2023-12-28T11:03:10;10.70;99.90
12708;DHT22;6418;50.824;4.718;2023-12-28T11:05:40;10.80;99.90
12708;DHT22;6418;50.824;4.718;2023-12-28T11:08:11;10.80;99.90
12708;DHT22;6418;50.824;4.718;2023-12-28T11:10:39;10.90;99.90
12708;DHT22;6418;50.824;4.718;2023-12-28T11:13:08;10.90;99.90
12708;DHT22;6418;50.824;4.718;2023-12-28T11:15:36;10.90;99.90
12708;DHT22;6418;50.824;4.718;2023-12-28T11:18:05;11.00;99.90
12708;DHT22;6418;50.824;4.718;2023-12-28T11:20:32;11.00;99.90
12708;DHT22;6418;50.824;4.718;2023-12-28T11:23:00;11.10;99.90
12708;DHT22;6418;50.824;4.718;2023-12-28T11:25:31;11.10;99.90
12708;DHT22;6418;50.824;4.718;2023-12-28T11:28:00;11.20;99.90
12708;DHT22;6418;50.824;4.718;2023-12-28T11:30:28;11.20;99.90
12708;DHT22;6418;50.824;4.718;2023-12-28T11:32:56;11.20;99.90
12708;DHT22;6418;50.824;4.718;2023-12-28T11:35:24;11.20;99.90
12708;DHT22;6418;50.824;4.718;2023-12-28T11:37:58;11.30;99.90
12708;DHT22;6418;50.824;4.718;2023-12-28T11:40:28;11.30;99.90
12708;DHT22;6418;50.824;4.718;2023-12-28T11:42:55;11.30;99.90
12708;DHT22;6418;50.824;4.718;2023-12-28T11:45:23;11.30;99.90
12708;DHT22;6418;50.824;4.718;2023-12-28T11:48:00;11.40;99.90
12708;DHT22;6418;50.824;4.718;2023-12-28T11:50:27;11.40;99.90
12708;DHT22;6418;50.824;4.718;2023-12-28T11:52:54;11.40;99.90
12708;DHT22;6418;50.824;4.718;2023-12-28T11:55:21;11.40;99.90
12708;DHT22;6418;50.824;4.718;2023-12-28T11:57:49;11.40;99.90
12708;DHT22;6418;50.824;4.718;2023-12-28T12:00:16;11.40;99.90
12708;DHT22;6418;50.824;4.718;2023-12-28T12:02:45;11.50;99.90
12708;DHT22;6418;50.824;4.718;2023-12-28T12:05:14;11.50;99.90
12708;DHT22;6418;50.824;4.718;2023-12-28T12:07:41;11.50;99.90
12708;DHT22;6418;50.824;4.718;2023-12-28T12:10:14;11.50;99.90
12708;DHT22;6418;50.824;4.718;2023-12-28T12:12:41;11.50;99.90
12708;DHT22;6418;50.824;4.718;2023-12-28T12:15:09;11.60;99.90
12708;DHT22;6418;50.824;4.718;2023-12-28T12:17:36;11.50;99.90
12708;DHT22;6418;50.824;4.718;2023-12-28T12:20:04;11.60;99.90
12708;DHT22;6418;50.824;4.718;2023-12-28T12:22:33;11.60;99.90
12708;DHT22;6418;50.824;4.718;2023-12-28T12:25:02;11.60;99.90
12708;DHT22;6418;50.824;4.718;2023-12-28T12:27:30;11.60;99.90
12708;DHT22;6418;50.824;4.718;2023-12-28T12:29:58;11.60;99.90
12708;DHT22;6418;50.824;4.718;2023-12-28T12:32:24;11.60;99.90
12708;DHT22;6418;50.824;4.718;2023-12-28T12:34:52;11.60;99.90
12708;DHT22;6418;50.824;4.718;2023-12-28T12:37:19;11.60;99.90
12708;DHT22;6418;50.824;4.718;2023-12-28T12:39:47;11.50;99.90
12708;DHT22;6418;50.824;4.718;2023-12-28T12:42:14;11.50;99.90
12708;DHT22;6418;50.824;4.718;2023-12-28T12:44:42;11.50;99.90
12708;DHT22;6418;50.824;4.718;2023-12-28T12:47:09;11.50;99.90
12708;DHT22;6418;50.824;4.718;2023-12-28T12:49:37;11.50;99.90
12708;DHT22;6418;50.824;4.718;2023-12-28T12:52:04;11.50;99.90
12708;DHT22;6418;50.824;4.718;2023-12-28T12:54:33;11.40;99.90
12708;DHT22;6418;50.824;4.718;2023-12-28T12:57:02;11.40;99.90
12708;DHT22;6418;50.824;4.718;2023-12-28T12:59:29;11.40;99.90
12708;DHT22;6418;50.824;4.718;2023-12-28T13:01:56;11.40;99.90
12708;DHT22;6418;50.824;4.718;2023-12-28T13:04:24;11.40;99.90
12708;DHT22;6418;50.824;4.718;2023-12-28T13:06:51;11.40;99.90
12708;DHT22;6418;50.824;4.718;2023-12-28T13:09:18;11.40;99.90
12708;DHT22;6418;50.824;4.718;2023-12-28T13:11:45;11.40;99.90
12708;DHT22;6418;50.824;4.718;2023-12-28T13:14:17;11.40;99.90
12708;DHT22;6418;50.824;4.718;2023-12-28T13:16:44;11.40;99.90
12708;DHT22;6418;50.824;4.718;2023-12-28T13:19:13;11.40;99.90
12708;DHT22;6418;50.824;4.718;2023-12-28T13:21:40;11.40;99.90
12708;DHT22;6418;50.824;4.718;2023-12-28T13:24:08;11.40;99.90
12708;DHT22;6418;50.824;4.718;2023-12-28T13:26:35;11.30;99.90
12708;DHT22;6418;50.824;4.718;2023-12-28T13:29:02;11.30;99.90
12708;DHT22;6418;50.824;4.718;2023-12-28T13:31:31;11.30;99.90
12708;DHT22;6418;50.824;4.718;2023-12-28T13:33:58;11.30;99.90
12708;DHT22;6418;50.824;4.718;2023-12-28T13:36:25;11.30;99.90
12708;DHT22;6418;50.824;4.718;2023-12-28T13:38:54;11.30;99.90
12708;DHT22;6418;50.824;4.718;2023-12-28T13:41:21;11.30;99.90
12708;DHT22;6418;50.824;4.718;2023-12-28T13:43:48;11.30;99.90
12708;DHT22;6418;50.824;4.718;2023-12-28T13:46:15;11.20;99.90
12708;DHT22;6418;50.824;4.718;2023-12-28T13:48:43;11.20;99.90
12708;DHT22;6418;50.824;4.718;2023-12-28T13:51:10;11.20;99.90
12708;DHT22;6418;50.824;4.718;2023-12-28T13:53:37;11.20;99.90
12708;DHT22;6418;50.824;4.718;2023-12-28T13:56:06;11.20;99.90
12708;DHT22;6418;50.824;4.718;2023-12-28T13:58:34;11.20;99.90
12708;DHT22;6418;50.824;4.718;2023-12-28T14:01:01;11.10;99.90
12708;DHT22;6418;50.824;4.718;2023-12-28T14:03:28;11.10;99.90
12708;DHT22;6418;50.824;4.718;2023-12-28T14:05:56;11.10;99.90
12708;DHT22;6418;50.824;4.718;2023-12-28T14:08:23;11.10;99.90
12708;DHT22;6418;50.824;4.718;2023-12-28T14:10:50;11.10;99.90
12708;DHT22;6418;50.824;4.718;2023-12-28T14:13:17;11.10;99.90
12708;DHT22;6418;50.824;4.718;2023-12-28T14:15:45;11.10;99.90
12708;DHT22;6418;50.824;4.718;2023-12-28T14:18:12;11.10;99.90
12708;DHT22;6418;50.824;4.718;2023-12-28T14:20:39;11.10;99.90
12708;DHT22;6418;50.824;4.718;2023-12-28T14:23:08;11.10;99.90
12708;DHT22;6418;50.824;4.718;2023-12-28T14:25:36;11.10;99.90
12708;DHT22;6418;50.824;4.718;2023-12-28T14:28:03;11.10;99.90
12708;DHT22;6418;50.824;4.718;2023-12-28T14:30:31;11.10;99.90
12708;DHT22;6418;50.824;4.718;2023-12-28T14:32:58;11.10;99.90
12708;DHT22;6418;50.824;4.718;2023-12-28T14:35:26;11.00;99.90
12708;DHT22;6418;50.824;4.718;2023-12-28T14:37:53;11.00;99.90
12708;DHT22;6418;50.824;4.718;2023-12-28T14:40:22;11.00;99.90
12708;DHT22;6418;50.824;4.718;2023-12-28T14:42:49;11.00;99.90
12708;DHT22;6418;50.824;4.718;2023-12-28T14:45:16;11.00;99.90
12708;DHT22;6418;50.824;4.718;2023-12-28T14:47:43;10.90;99.90
12708;DHT22;6418;50.824;4.718;2023-12-28T14:50:10;10.90;99.90
12708;DHT22;6418;50.824;4.718;2023-12-28T14:52:38;10.90;99.90
12708;DHT22;6418;50.824;4.718;2023-12-28T14:55:08;10.90;99.90
12708;DHT22;6418;50.824;4.718;2023-12-28T14:57:36;10.80;99.90
12708;DHT22;6418;50.824;4.718;2023-12-28T15:00:04;10.80;99.90
12708;DHT22;6418;50.824;4.718;2023-12-28T15:02:32;10.80;99.90
12708;DHT22;6418;50.824;4.718;2023-12-28T15:04:59;10.80;99.90
12708;DHT22;6418;50.824;4.718;2023-12-28T15:07:26;10.80;99.90
12708;DHT22;6418;50.824;4.718;2023-12-28T15:09:53;10.80;99.90
12708;DHT22;6418;50.824;4.718;2023-12-28T15:12:22;10.80;99.90
12708;DHT22;6418;50.824;4.718;2023-12-28T15:14:51;10.80;99.90
12708;DHT22;6418;50.824;4.718;2023-12-28T15:17:19;10.70;99.90
12708;DHT22;6418;50.824;4.718;2023-12-28T15:19:48;10.70;99.90
12708;DHT22;6418;50.824;4.718;2023-12-28T15:22:15;10.70;99.90
12708;DHT22;6418;50.824;4.718;2023-12-28T15:24:43;10.70;99.90
12708;DHT22;6418;50.824;4.718;2023-12-28T15:27:10;10.60;99.90
12708;DHT22;6418;50.824;4.718;2023-12-28T15:29:38;10.60;99.90
12708;DHT22;6418;50.824;4.718;2023-12-28T15:32:06;10.60;99.90
12708;DHT22;6418;50.824;4.718;2023-12-28T15:34:34;10.60;99.90
12708;DHT22;6418;50.824;4.718;2023-12-28T15:37:01;10.50;99.90
12708;DHT22;6418;50.824;4.718;2023-12-28T15:39:28;10.50;99.90
12708;DHT22;6418;50.824;4.718;2023-12-28T15:41:56;10.50;99.90
12708;DHT22;6418;50.824;4.718;2023-12-28T15:44:23;10.50;99.90
12708;DHT22;6418;50.824;4.718;2023-12-28T15:46:49;10.50;99.90
12708;DHT22;6418;50.824;4.718;2023-12-28T15:49:18;10.50;99.90
12708;DHT22;6418;50.824;4.718;2023-12-28T15:51:45;10.40;99.90
12708;DHT22;6418;50.824;4.718;2023-12-28T15:54:12;10.40;99.90
12708;DHT22;6418;50.824;4.718;2023-12-28T15:56:39;10.40;99.90
12708;DHT22;6418;50.824;4.718;2023-12-28T15:59:06;10.40;99.90